createdAt,value
2022-12-26T00:02:19.416Z,45.87
2022-12-26T00:05:28.614Z,56.78
2022-12-26T00:08:37.802Z,58.70
2022-12-26T00:11:48.531Z,56.60
2022-12-26T00:14:57.691Z,55.20
2022-12-26T00:18:06.983Z,47.75
2022-12-26T00:21:16.927Z,52.78
2022-12-26T00:24:26.175Z,59.83
2022-12-26T00:27:36.808Z,66.45
2022-12-26T00:30:45.998Z,64.70
2022-12-26T00:33:58.239Z,74.65
2022-12-26T00:37:07.462Z,56.80
2022-12-26T00:40:16.997Z,71.77
2022-12-26T00:43:27.625Z,65.40
2022-12-26T00:46:37.155Z,39.30
2022-12-26T00:50:13.156Z,71.50
2022-12-26T00:53:15.721Z,63.30
2022-12-26T00:56:25.040Z,43.67
2022-12-26T00:59:35.751Z,67.65
2022-12-26T01:02:45.077Z,60.05
2022-12-26T01:05:54.304Z,52.28
2022-12-26T01:09:03.829Z,67.90
2022-12-26T01:12:13.075Z,42.03
2022-12-26T01:15:24.129Z,67.63
2022-12-26T01:18:33.792Z,63.90
2022-12-26T01:21:43.481Z,66.03
2022-12-26T01:24:55.358Z,63.28
2022-12-26T01:28:04.707Z,44.83
2022-12-26T01:31:15.341Z,69.90
2022-12-26T01:34:24.698Z,34.22
2022-12-26T01:37:34.051Z,46.60
2022-12-26T01:40:44.532Z,49.65
2022-12-26T01:47:05.605Z,59.53
2022-12-26T01:50:34.066Z,51.25
2022-12-26T01:53:46.874Z,61.17
2022-12-26T01:56:56.418Z,58.65
2022-12-26T02:00:07.774Z,49.37
2022-12-26T02:03:41.253Z,72.97
2022-12-26T02:06:51.072Z,74.88
2022-12-26T02:10:00.402Z,67.53
2022-12-26T02:13:09.703Z,63.00
2022-12-26T02:16:20.831Z,48.45
2022-12-26T02:19:41.123Z,63.30
2022-12-26T02:23:20.587Z,63.00
2022-12-26T02:26:56.521Z,39.28
2022-12-26T02:30:08.959Z,56.88
2022-12-26T02:33:28.871Z,62.03
2022-12-26T02:36:58.662Z,35.78
2022-12-26T02:40:29.163Z,47.00
2022-12-26T02:47:05.988Z,45.80
2022-12-26T02:50:40.310Z,63.33
2022-12-26T02:54:13.172Z,67.90
2022-12-26T02:57:42.164Z,60.70
2022-12-26T03:01:10.871Z,73.15
2022-12-26T03:04:40.401Z,90.63
2022-12-26T03:08:07.624Z,93.95
2022-12-26T03:11:34.508Z,86.50
2022-12-26T03:14:47.538Z,64.60
2022-12-26T03:17:58.464Z,100.78
2022-12-26T03:21:10.987Z,66.30
2022-12-26T03:24:22.914Z,92.93
2022-12-26T03:27:31.383Z,87.43
2022-12-26T03:30:52.832Z,69.97
2022-12-26T03:34:19.538Z,72.78
2022-12-26T03:37:49.650Z,76.25
2022-12-26T03:41:22.005Z,64.55
2022-12-26T03:44:54.222Z,64.57
2022-12-26T03:48:25.523Z,68.28
2022-12-26T03:51:54.549Z,66.05
2022-12-26T03:55:24.772Z,55.10
2022-12-26T03:58:57.481Z,36.35
2022-12-26T04:02:21.935Z,49.90
2022-12-26T04:05:48.816Z,50.53
2022-12-26T04:09:19.389Z,44.75
2022-12-26T04:16:17.609Z,43.95
2022-12-26T04:19:43.354Z,56.50
2022-12-26T04:23:13.062Z,41.05
2022-12-26T04:26:42.479Z,48.00
2022-12-26T04:30:08.990Z,45.15
2022-12-26T04:33:39.379Z,34.85
2022-12-26T04:37:09.412Z,39.88
2022-12-26T04:40:39.100Z,32.45
2022-12-26T04:44:05.686Z,37.17
2022-12-26T04:47:14.897Z,41.92
2022-12-26T04:50:24.515Z,36.67
2022-12-26T04:53:33.687Z,37.80
2022-12-26T04:56:43.612Z,36.63
2022-12-26T04:59:55.343Z,35.75
2022-12-26T05:03:22.511Z,27.60
2022-12-26T05:06:50.466Z,39.10
2022-12-26T05:09:59.895Z,31.25
2022-12-26T05:13:09.165Z,33.17
2022-12-26T05:16:35.698Z,24.75
2022-12-26T05:20:02.923Z,37.72
2022-12-26T05:23:35.763Z,31.92
2022-12-26T05:27:02.757Z,36.67
2022-12-26T05:30:12.943Z,29.83
2022-12-26T05:33:39.307Z,36.72
2022-12-26T05:36:52.909Z,27.75
2022-12-26T05:40:03.563Z,21.10
2022-12-26T05:43:12.808Z,35.88
2022-12-26T05:46:22.250Z,25.27
2022-12-26T05:49:31.579Z,22.98
2022-12-26T05:52:40.767Z,24.27
2022-12-26T05:55:51.537Z,30.88
2022-12-26T05:59:02.484Z,13.85
2022-12-26T06:02:11.832Z,26.48
2022-12-26T06:05:21.170Z,20.95
2022-12-26T06:08:30.973Z,23.25
2022-12-26T06:11:46.914Z,12.75
2022-12-26T06:14:58.059Z,24.50
2022-12-26T06:18:09.023Z,15.27
2022-12-26T06:21:20.265Z,21.55
2022-12-26T06:24:29.472Z,20.05
2022-12-26T06:27:40.133Z,22.50
2022-12-26T06:30:49.319Z,16.50
2022-12-26T06:34:01.430Z,25.05
2022-12-26T06:37:10.647Z,18.02
2022-12-26T06:40:20.459Z,15.80
2022-12-26T06:43:31.118Z,16.00
2022-12-26T06:46:40.374Z,18.02
2022-12-26T06:49:49.679Z,21.48
2022-12-26T06:53:00.338Z,18.23
2022-12-26T06:56:11.056Z,16.67
2022-12-26T06:59:21.755Z,14.48
2022-12-26T07:02:31.157Z,19.70
2022-12-26T07:05:40.857Z,16.02
2022-12-26T07:08:50.379Z,22.83
2022-12-26T07:11:59.548Z,17.43
2022-12-26T07:15:11.876Z,25.50
2022-12-26T07:18:21.090Z,20.85
2022-12-26T07:21:36.324Z,29.90
2022-12-26T07:24:49.951Z,19.80
2022-12-26T07:28:00.587Z,21.77
2022-12-26T07:31:11.324Z,13.52
2022-12-26T07:34:20.544Z,19.52
2022-12-26T07:37:30.316Z,22.33
2022-12-26T07:40:39.557Z,25.88
2022-12-26T07:43:48.747Z,15.48
2022-12-26T07:47:00.090Z,22.33
2022-12-26T07:50:10.166Z,19.20
2022-12-26T07:53:19.395Z,18.33
2022-12-26T07:56:28.575Z,24.55
2022-12-26T07:59:37.846Z,17.75
2022-12-26T08:02:49.763Z,29.23
2022-12-26T08:05:59.333Z,12.10
2022-12-26T08:09:08.599Z,18.85
2022-12-26T08:12:21.427Z,16.80
2022-12-26T08:15:31.132Z,13.80
2022-12-26T08:18:42.006Z,19.60
2022-12-26T08:21:51.542Z,17.52
2022-12-26T08:25:01.268Z,28.10
2022-12-26T08:28:10.556Z,28.05
2022-12-26T08:31:20.659Z,25.20
2022-12-26T08:34:35.010Z,30.98
2022-12-26T08:37:44.238Z,29.17
2022-12-26T08:40:57.442Z,32.90
2022-12-26T08:47:36.516Z,15.38
2022-12-26T08:50:47.211Z,17.17
2022-12-26T08:53:57.085Z,31.90
2022-12-26T08:57:06.345Z,20.08
2022-12-26T09:00:16.791Z,22.67
2022-12-26T09:06:38.518Z,24.65
2022-12-26T09:09:47.870Z,30.70
2022-12-26T09:12:57.095Z,24.75
2022-12-26T09:16:11.566Z,17.08
2022-12-26T09:19:22.080Z,25.83
2022-12-26T09:26:06.495Z,16.80
2022-12-26T09:29:16.048Z,32.85
2022-12-26T09:32:25.309Z,25.80
2022-12-26T09:35:34.574Z,33.22
2022-12-26T09:38:45.990Z,41.90
2022-12-26T09:42:05.538Z,25.25
2022-12-26T09:45:16.404Z,34.03
2022-12-26T09:48:29.163Z,29.83
2022-12-26T09:51:39.728Z,29.50
2022-12-26T09:54:54.607Z,34.58
2022-12-26T09:58:08.062Z,28.98
2022-12-26T10:01:20.413Z,30.77
2022-12-26T10:04:31.226Z,33.13
2022-12-26T10:07:43.961Z,28.55
2022-12-26T10:11:01.189Z,18.42
2022-12-26T10:14:21.421Z,25.95
2022-12-26T10:17:36.293Z,24.80
2022-12-26T10:20:53.614Z,17.73
2022-12-26T10:24:09.141Z,27.17
2022-12-26T10:27:20.686Z,26.02
2022-12-26T10:30:34.292Z,30.58
2022-12-26T10:33:46.950Z,18.15
2022-12-26T10:37:01.122Z,26.85
2022-12-26T10:40:20.360Z,31.98
2022-12-26T10:43:33.753Z,29.23
2022-12-26T10:47:09.528Z,27.70
2022-12-26T10:50:25.557Z,21.52
2022-12-26T10:53:38.212Z,23.50
2022-12-26T10:56:49.571Z,30.50
2022-12-26T11:00:00.302Z,31.38
2022-12-26T11:03:12.587Z,22.58
2022-12-26T11:06:23.164Z,23.98
2022-12-26T11:12:50.372Z,19.42
2022-12-26T11:16:01.141Z,23.90
2022-12-26T11:19:27.967Z,23.90
2022-12-26T11:22:37.222Z,22.30
2022-12-26T11:25:50.977Z,24.27
2022-12-26T11:29:08.890Z,21.02
2022-12-26T11:32:21.582Z,22.35
2022-12-26T11:35:39.144Z,23.23
2022-12-26T11:38:55.022Z,19.67
2022-12-26T11:42:11.214Z,19.73
2022-12-26T11:45:24.187Z,19.98
2022-12-26T11:48:34.807Z,18.55
2022-12-26T11:51:47.736Z,15.52
2022-12-26T11:54:56.902Z,12.40
2022-12-26T11:58:20.795Z,14.57
2022-12-26T12:01:30.067Z,16.75
2022-12-26T12:04:40.787Z,12.93
2022-12-26T12:08:02.019Z,11.32
2022-12-26T12:11:23.657Z,14.50
2022-12-26T12:14:46.883Z,20.00
2022-12-26T12:18:04.456Z,17.40
2022-12-26T12:21:21.347Z,18.63
2022-12-26T12:24:44.067Z,15.02
2022-12-26T12:27:59.827Z,15.85
2022-12-26T12:31:14.672Z,17.77
2022-12-26T12:34:32.582Z,19.98
2022-12-26T12:37:56.424Z,17.52
2022-12-26T12:41:22.898Z,23.98
2022-12-26T12:44:44.171Z,23.13
2022-12-26T12:48:11.755Z,18.52
2022-12-26T12:51:27.089Z,17.30
2022-12-26T12:54:50.889Z,20.70
2022-12-26T12:58:04.993Z,22.58
2022-12-26T13:01:17.471Z,19.40
2022-12-26T13:04:30.452Z,19.08
2022-12-26T13:07:47.124Z,16.23
2022-12-26T13:11:03.300Z,18.10
2022-12-26T13:14:17.403Z,18.15
2022-12-26T13:17:31.094Z,17.35
2022-12-26T13:20:42.379Z,18.10
2022-12-26T13:24:13.508Z,15.65
2022-12-26T13:27:28.127Z,18.60
2022-12-26T13:30:38.115Z,16.27
2022-12-26T13:33:47.344Z,20.85
2022-12-26T13:36:57.666Z,16.45
2022-12-26T13:40:17.072Z,16.58
2022-12-26T13:43:44.998Z,13.88
2022-12-26T13:46:58.796Z,18.00
2022-12-26T13:50:56.898Z,18.10
2022-12-26T13:54:12.457Z,17.48
2022-12-26T13:57:37.348Z,17.27
2022-12-26T14:00:49.896Z,20.38
2022-12-26T14:04:13.128Z,18.27
2022-12-26T14:07:26.242Z,17.35
2022-12-26T14:10:43.439Z,20.42
2022-12-26T14:14:03.874Z,17.85
2022-12-26T14:16:45.852Z,18.83
2022-12-26T14:19:21.709Z,17.10
2022-12-26T14:21:57.359Z,17.17
2022-12-26T14:24:32.701Z,19.50
2022-12-26T14:27:26.097Z,17.00
2022-12-26T14:30:02.599Z,18.27
2022-12-26T14:32:40.654Z,14.80
2022-12-26T14:35:20.289Z,16.00
2022-12-26T14:37:56.031Z,18.75
2022-12-26T14:40:30.741Z,18.20
2022-12-26T14:43:14.609Z,17.98
2022-12-26T14:45:46.486Z,15.93
2022-12-26T14:48:52.230Z,18.85
2022-12-26T14:51:37.085Z,19.83
2022-12-26T14:54:22.229Z,16.58
2022-12-26T14:56:52.346Z,15.40
2022-12-26T14:59:30.561Z,18.52
2022-12-26T15:02:13.416Z,17.20
2022-12-26T15:05:01.793Z,14.18
2022-12-26T15:08:04.835Z,17.25
2022-12-26T15:11:10.413Z,16.98
2022-12-26T15:14:11.939Z,18.20
2022-12-26T15:16:49.061Z,21.40
2022-12-26T15:19:50.292Z,16.90
2022-12-26T15:22:44.529Z,19.08
2022-12-26T15:25:37.418Z,14.95
2022-12-26T15:28:35.446Z,18.23
2022-12-26T15:31:16.254Z,17.55
2022-12-26T15:33:49.933Z,20.88
2022-12-26T15:36:24.040Z,18.08
2022-12-26T15:38:58.859Z,18.35
2022-12-26T15:41:37.327Z,21.52
2022-12-26T15:44:15.563Z,19.75
2022-12-26T15:46:48.891Z,22.75
2022-12-26T15:49:42.854Z,26.83
2022-12-26T15:52:18.619Z,22.83
2022-12-26T15:55:32.442Z,21.13
2022-12-26T15:58:07.860Z,24.45
2022-12-26T16:00:38.552Z,23.33
2022-12-26T16:03:32.490Z,21.52
2022-12-26T16:06:11.068Z,20.75
2022-12-26T16:08:54.364Z,22.45
2022-12-26T16:11:25.518Z,21.80
2022-12-26T16:13:59.549Z,20.35
2022-12-26T16:16:34.933Z,18.52
2022-12-26T16:19:18.312Z,26.85
2022-12-26T16:22:06.587Z,16.55
2022-12-26T16:24:36.655Z,18.30
2022-12-26T16:27:07.460Z,20.10
2022-12-26T16:29:42.580Z,20.30
2022-12-26T16:32:17.453Z,19.90
2022-12-26T16:34:46.484Z,23.65
2022-12-26T16:37:20.051Z,24.65
2022-12-26T16:40:15.007Z,16.88
2022-12-26T16:42:45.677Z,19.13
2022-12-26T16:45:20.409Z,21.00
2022-12-26T16:47:49.930Z,16.70
2022-12-26T16:50:20.374Z,15.93
2022-12-26T16:52:48.998Z,13.88
2022-12-26T16:55:36.244Z,17.08
2022-12-26T16:58:14.396Z,16.23
2022-12-26T17:00:49.494Z,25.23
2022-12-26T17:03:30.254Z,16.38
2022-12-26T17:05:59.573Z,19.90
2022-12-26T17:08:28.596Z,15.32
2022-12-26T17:10:57.411Z,15.77
2022-12-26T17:13:27.790Z,24.02
2022-12-26T17:18:36.878Z,20.45
2022-12-26T17:21:32.961Z,25.35
2022-12-26T17:24:16.959Z,22.35
2022-12-26T17:26:52.465Z,24.02
2022-12-26T17:29:38.045Z,30.95
2022-12-26T17:32:14.727Z,28.42
2022-12-26T17:34:43.995Z,29.02
2022-12-26T17:37:23.298Z,27.52
2022-12-26T17:40:03.035Z,28.00
2022-12-26T17:42:41.662Z,29.15
2022-12-26T17:45:11.734Z,25.17
2022-12-26T17:47:42.240Z,28.20
2022-12-26T17:50:11.389Z,25.75
2022-12-26T17:52:40.607Z,27.70
2022-12-26T17:55:16.591Z,25.40
2022-12-26T17:57:45.647Z,28.83
2022-12-26T18:00:19.547Z,24.73
2022-12-26T18:02:50.740Z,26.30
2022-12-26T18:05:21.064Z,24.30
2022-12-26T18:07:51.440Z,28.13
2022-12-26T18:10:21.933Z,27.83
2022-12-26T18:12:51.382Z,23.92
2022-12-26T18:15:21.334Z,30.58
2022-12-26T18:17:52.707Z,33.45
2022-12-26T18:20:24.571Z,27.20
2022-12-26T18:22:53.495Z,26.15
2022-12-26T18:25:24.866Z,28.67
2022-12-26T18:27:54.223Z,34.05
2022-12-26T18:30:24.671Z,31.25
2022-12-26T18:35:24.147Z,32.95
2022-12-26T18:37:53.996Z,27.20
2022-12-26T18:40:30.024Z,30.35
2022-12-26T18:42:58.983Z,33.13
2022-12-26T18:45:28.190Z,27.35
2022-12-26T18:47:58.986Z,29.48
2022-12-26T18:50:28.681Z,31.52
2022-12-26T18:52:57.318Z,30.40
2022-12-26T18:55:27.121Z,31.70
2022-12-26T18:57:56.411Z,33.22
2022-12-26T19:00:26.106Z,32.30
2022-12-26T19:02:55.704Z,31.08
2022-12-26T19:05:27.743Z,29.37
2022-12-26T19:07:56.625Z,35.00
2022-12-26T19:10:27.535Z,28.80
2022-12-26T19:13:02.764Z,31.67
2022-12-26T19:15:34.758Z,33.80
2022-12-26T19:18:04.034Z,40.33
2022-12-26T19:20:39.020Z,37.67
2022-12-26T19:23:11.464Z,33.67
2022-12-26T19:25:40.146Z,36.95
2022-12-26T19:28:10.519Z,32.03
2022-12-26T19:30:39.474Z,31.60
2022-12-26T19:33:08.506Z,34.03
2022-12-26T19:35:38.976Z,33.90
2022-12-26T19:38:07.930Z,34.15
2022-12-26T19:40:36.496Z,35.08
2022-12-26T19:43:05.474Z,31.40
2022-12-26T19:45:34.471Z,31.65
2022-12-26T19:48:03.581Z,29.30
2022-12-26T19:50:33.614Z,28.50
2022-12-26T19:53:03.985Z,31.73
2022-12-26T19:55:32.569Z,29.52
2022-12-26T19:58:01.540Z,27.55
2022-12-26T20:00:30.686Z,23.25
2022-12-26T20:02:59.682Z,25.85
2022-12-26T20:05:28.720Z,20.98
2022-12-26T20:07:57.261Z,23.15
2022-12-26T20:10:27.687Z,18.33
2022-12-26T20:12:56.784Z,17.50
2022-12-26T20:15:25.743Z,20.48
2022-12-26T20:17:54.900Z,23.23
2022-12-26T20:20:23.824Z,21.77
2022-12-26T20:22:53.355Z,24.25
2022-12-26T20:25:22.420Z,24.65
2022-12-26T20:27:53.039Z,24.13
2022-12-26T20:30:22.079Z,20.33
2022-12-26T20:32:51.122Z,19.75
2022-12-26T20:35:20.106Z,18.73
2022-12-26T20:37:48.885Z,24.80
2022-12-26T20:40:18.095Z,19.65
2022-12-26T20:42:47.199Z,19.48
2022-12-26T20:45:17.699Z,27.92
2022-12-26T20:47:46.717Z,18.77
2022-12-26T20:50:17.592Z,20.25
2022-12-26T20:52:46.204Z,22.25
2022-12-26T20:55:16.547Z,24.52
2022-12-26T21:00:17.123Z,23.40
2022-12-26T21:02:46.350Z,20.52
2022-12-26T21:05:15.434Z,19.92
2022-12-26T21:07:44.119Z,20.05
2022-12-26T21:10:13.117Z,26.02
2022-12-26T21:12:42.246Z,26.83
2022-12-26T21:15:11.547Z,22.38
2022-12-26T21:17:41.948Z,21.60
2022-12-26T21:22:39.556Z,25.00
2022-12-26T21:25:09.363Z,28.58
2022-12-26T21:27:41.541Z,25.30
2022-12-26T21:30:12.846Z,22.15
2022-12-26T21:32:44.580Z,24.15
2022-12-26T21:37:51.609Z,25.52
2022-12-26T21:40:23.063Z,23.75
2022-12-26T21:42:52.037Z,25.95
2022-12-26T21:45:20.996Z,27.15
2022-12-26T21:47:51.328Z,30.92
2022-12-26T21:50:20.157Z,26.92
2022-12-26T21:52:48.827Z,28.67
2022-12-26T21:55:31.205Z,28.88
2022-12-26T21:58:02.581Z,30.08
2022-12-26T22:00:32.530Z,29.50
2022-12-26T22:03:20.577Z,31.58
2022-12-26T22:05:49.563Z,28.10
2022-12-26T22:08:18.543Z,29.35
2022-12-26T22:11:05.922Z,23.40
2022-12-26T22:13:41.450Z,26.50
2022-12-26T22:16:12.223Z,24.38
2022-12-26T22:18:45.012Z,25.45
2022-12-26T22:21:15.917Z,26.33
2022-12-26T22:23:45.687Z,24.48
2022-12-26T22:26:16.270Z,28.83
2022-12-26T22:28:45.214Z,27.63
2022-12-26T22:31:19.773Z,25.88
2022-12-26T22:33:54.782Z,27.45
2022-12-26T22:36:23.870Z,24.90
2022-12-26T22:38:52.807Z,20.65
2022-12-26T22:41:21.832Z,22.35
2022-12-26T22:43:50.390Z,22.80
2022-12-26T22:46:19.842Z,23.35
2022-12-26T22:48:50.297Z,21.42
2022-12-26T22:51:21.073Z,23.65
2022-12-26T22:53:50.475Z,22.60
2022-12-26T22:56:19.451Z,26.67
2022-12-26T22:58:48.052Z,27.40
2022-12-26T23:01:18.980Z,27.65
2022-12-26T23:03:49.541Z,25.38
2022-12-26T23:06:21.489Z,23.60
2022-12-26T23:08:53.027Z,28.90
2022-12-26T23:11:22.838Z,24.20
2022-12-26T23:13:51.855Z,23.73
2022-12-26T23:16:25.985Z,24.38
2022-12-26T23:19:16.421Z,25.95
2022-12-26T23:21:48.754Z,26.65
2022-12-26T23:24:19.495Z,27.42
2022-12-26T23:26:50.413Z,22.63
2022-12-26T23:29:38.986Z,27.92
2022-12-26T23:32:08.212Z,29.85
2022-12-26T23:34:38.652Z,23.30
2022-12-26T23:37:07.725Z,26.38
2022-12-26T23:39:37.191Z,24.95
2022-12-26T23:42:06.330Z,23.93
2022-12-26T23:44:36.140Z,27.02
2022-12-26T23:47:05.221Z,24.65
2022-12-26T23:49:33.848Z,22.50
2022-12-26T23:52:04.279Z,23.35
2022-12-26T23:54:33.275Z,22.08
2022-12-26T23:57:02.252Z,21.20
2022-12-26T23:59:31.253Z,24.40
